sensor_id;sensor_type;location;lat;lon;timestamp;P1;durP1;ratioP1;P2;durP2;ratioP2
26908;SDS011;14477;51.038;4.588;2023-04-03T00:01:17;4.90;;;2.70;;
26908;SDS011;14477;51.038;4.588;2023-04-03T00:03:43;4.32;;;2.92;;
26908;SDS011;14477;51.038;4.588;2023-04-03T00:06:10;4.22;;;2.83;;
26908;SDS011;14477;51.038;4.588;2023-04-03T00:08:36;4.40;;;2.58;;
26908;SDS011;14477;51.038;4.588;2023-04-03T00:11:03;5.17;;;2.90;;
26908;SDS011;14477;51.038;4.588;2023-04-03T00:13:29;4.97;;;2.83;;
26908;SDS011;14477;51.038;4.588;2023-04-03T00:15:55;5.85;;;2.80;;
26908;SDS011;14477;51.038;4.588;2023-04-03T00:18:21;3.57;;;2.40;;
26908;SDS011;14477;51.038;4.588;2023-04-03T00:20:47;4.45;;;2.70;;
26908;SDS011;14477;51.038;4.588;2023-04-03T00:23:13;6.78;;;3.35;;
26908;SDS011;14477;51.038;4.588;2023-04-03T00:25:39;4.70;;;2.87;;
26908;SDS011;14477;51.038;4.588;2023-04-03T00:28:04;4.75;;;2.83;;
26908;SDS011;14477;51.038;4.588;2023-04-03T00:30:30;4.82;;;2.67;;
26908;SDS011;14477;51.038;4.588;2023-04-03T00:32:56;4.80;;;2.90;;
26908;SDS011;14477;51.038;4.588;2023-04-03T00:35:23;4.55;;;2.60;;
26908;SDS011;14477;51.038;4.588;2023-04-03T00:37:53;4.75;;;2.63;;
26908;SDS011;14477;51.038;4.588;2023-04-03T00:40:20;4.80;;;2.75;;
26908;SDS011;14477;51.038;4.588;2023-04-03T00:42:48;4.72;;;2.80;;
26908;SDS011;14477;51.038;4.588;2023-04-03T00:47:44;4.25;;;2.50;;
26908;SDS011;14477;51.038;4.588;2023-04-03T00:50:10;5.20;;;2.80;;
26908;SDS011;14477;51.038;4.588;2023-04-03T00:52:36;4.87;;;2.77;;
26908;SDS011;14477;51.038;4.588;2023-04-03T00:55:06;4.10;;;2.33;;
26908;SDS011;14477;51.038;4.588;2023-04-03T00:57:34;4.53;;;2.60;;
26908;SDS011;14477;51.038;4.588;2023-04-03T01:00:07;3.55;;;2.38;;
26908;SDS011;14477;51.038;4.588;2023-04-03T01:02:36;5.53;;;2.85;;
26908;SDS011;14477;51.038;4.588;2023-04-03T01:05:03;4.65;;;2.70;;
26908;SDS011;14477;51.038;4.588;2023-04-03T01:07:30;4.83;;;2.70;;
26908;SDS011;14477;51.038;4.588;2023-04-03T01:09:59;4.53;;;2.67;;
26908;SDS011;14477;51.038;4.588;2023-04-03T01:12:30;5.18;;;2.67;;
26908;SDS011;14477;51.038;4.588;2023-04-03T01:15:09;4.70;;;2.67;;
26908;SDS011;14477;51.038;4.588;2023-04-03T01:28:08;4.03;;;2.60;;
26908;SDS011;14477;51.038;4.588;2023-04-03T01:33:31;5.50;;;2.93;;
26908;SDS011;14477;51.038;4.588;2023-04-03T01:35:56;4.72;;;2.50;;
26908;SDS011;14477;51.038;4.588;2023-04-03T01:38:22;4.35;;;2.42;;
26908;SDS011;14477;51.038;4.588;2023-04-03T01:40:48;4.47;;;2.50;;
26908;SDS011;14477;51.038;4.588;2023-04-03T01:43:14;4.40;;;2.60;;
26908;SDS011;14477;51.038;4.588;2023-04-03T01:45:40;3.80;;;2.50;;
26908;SDS011;14477;51.038;4.588;2023-04-03T01:48:05;5.93;;;2.60;;
26908;SDS011;14477;51.038;4.588;2023-04-03T01:50:31;4.63;;;2.60;;
26908;SDS011;14477;51.038;4.588;2023-04-03T01:52:57;4.45;;;2.60;;
26908;SDS011;14477;51.038;4.588;2023-04-03T01:55:22;5.87;;;2.67;;
26908;SDS011;14477;51.038;4.588;2023-04-03T01:57:48;4.35;;;2.53;;
26908;SDS011;14477;51.038;4.588;2023-04-03T02:00:14;4.53;;;2.73;;
26908;SDS011;14477;51.038;4.588;2023-04-03T02:02:40;4.95;;;2.40;;
26908;SDS011;14477;51.038;4.588;2023-04-03T02:05:06;3.40;;;2.40;;
26908;SDS011;14477;51.038;4.588;2023-04-03T02:07:32;4.50;;;2.58;;
26908;SDS011;14477;51.038;4.588;2023-04-03T02:09:57;5.70;;;2.67;;
26908;SDS011;14477;51.038;4.588;2023-04-03T02:12:23;4.57;;;2.43;;
26908;SDS011;14477;51.038;4.588;2023-04-03T02:14:49;4.63;;;2.53;;
26908;SDS011;14477;51.038;4.588;2023-04-03T02:17:14;5.18;;;2.50;;
26908;SDS011;14477;51.038;4.588;2023-04-03T02:19:40;5.30;;;2.60;;
26908;SDS011;14477;51.038;4.588;2023-04-03T02:22:06;4.45;;;2.55;;
26908;SDS011;14477;51.038;4.588;2023-04-03T02:24:32;5.17;;;2.70;;
26908;SDS011;14477;51.038;4.588;2023-04-03T02:26:57;4.80;;;2.70;;
26908;SDS011;14477;51.038;4.588;2023-04-03T02:29:23;4.13;;;2.50;;
26908;SDS011;14477;51.038;4.588;2023-04-03T02:31:49;4.23;;;2.53;;
26908;SDS011;14477;51.038;4.588;2023-04-03T02:34:15;4.50;;;2.50;;
26908;SDS011;14477;51.038;4.588;2023-04-03T02:36:41;4.95;;;2.65;;
26908;SDS011;14477;51.038;4.588;2023-04-03T02:39:07;5.82;;;2.78;;
26908;SDS011;14477;51.038;4.588;2023-04-03T02:41:33;5.30;;;2.57;;
26908;SDS011;14477;51.038;4.588;2023-04-03T02:44:04;5.32;;;2.80;;
26908;SDS011;14477;51.038;4.588;2023-04-03T02:46:31;4.80;;;2.65;;
26908;SDS011;14477;51.038;4.588;2023-04-03T02:48:57;4.55;;;2.80;;
26908;SDS011;14477;51.038;4.588;2023-04-03T02:51:23;4.63;;;2.80;;
26908;SDS011;14477;51.038;4.588;2023-04-03T02:53:49;4.38;;;2.70;;
26908;SDS011;14477;51.038;4.588;2023-04-03T02:56:15;4.53;;;2.53;;
26908;SDS011;14477;51.038;4.588;2023-04-03T02:58:43;3.95;;;2.45;;
26908;SDS011;14477;51.038;4.588;2023-04-03T03:01:09;4.63;;;2.73;;
26908;SDS011;14477;51.038;4.588;2023-04-03T03:03:35;4.07;;;2.53;;
26908;SDS011;14477;51.038;4.588;2023-04-03T03:06:05;4.90;;;3.50;;
26908;SDS011;14477;51.038;4.588;2023-04-03T03:08:31;4.53;;;2.60;;
26908;SDS011;14477;51.038;4.588;2023-04-03T03:10:57;4.00;;;2.47;;
26908;SDS011;14477;51.038;4.588;2023-04-03T03:13:23;4.22;;;2.50;;
26908;SDS011;14477;51.038;4.588;2023-04-03T03:15:49;6.30;;;3.00;;
26908;SDS011;14477;51.038;4.588;2023-04-03T03:18:15;4.50;;;2.63;;
26908;SDS011;14477;51.038;4.588;2023-04-03T03:20:41;4.40;;;2.70;;
26908;SDS011;14477;51.038;4.588;2023-04-03T03:23:07;4.45;;;2.55;;
26908;SDS011;14477;51.038;4.588;2023-04-03T03:25:33;4.70;;;2.57;;
26908;SDS011;14477;51.038;4.588;2023-04-03T03:28:02;4.50;;;2.38;;
26908;SDS011;14477;51.038;4.588;2023-04-03T03:30:28;5.20;;;2.60;;
26908;SDS011;14477;51.038;4.588;2023-04-03T03:32:54;4.33;;;2.60;;
26908;SDS011;14477;51.038;4.588;2023-04-03T03:35:19;4.50;;;2.60;;
26908;SDS011;14477;51.038;4.588;2023-04-03T03:37:45;4.80;;;2.70;;
26908;SDS011;14477;51.038;4.588;2023-04-03T03:40:11;5.23;;;2.80;;
26908;SDS011;14477;51.038;4.588;2023-04-03T03:42:38;4.95;;;2.80;;
26908;SDS011;14477;51.038;4.588;2023-04-03T03:45:04;6.03;;;3.00;;
26908;SDS011;14477;51.038;4.588;2023-04-03T03:47:30;4.45;;;2.80;;
26908;SDS011;14477;51.038;4.588;2023-04-03T03:49:56;5.40;;;2.97;;
26908;SDS011;14477;51.038;4.588;2023-04-03T03:52:21;5.57;;;2.80;;
26908;SDS011;14477;51.038;4.588;2023-04-03T03:54:47;4.30;;;2.33;;
26908;SDS011;14477;51.038;4.588;2023-04-03T03:57:13;4.53;;;2.70;;
26908;SDS011;14477;51.038;4.588;2023-04-03T03:59:38;5.70;;;2.90;;
26908;SDS011;14477;51.038;4.588;2023-04-03T04:02:06;4.78;;;2.80;;
26908;SDS011;14477;51.038;4.588;2023-04-03T04:04:32;3.95;;;2.55;;
26908;SDS011;14477;51.038;4.588;2023-04-03T04:06:58;4.90;;;2.80;;
26908;SDS011;14477;51.038;4.588;2023-04-03T04:09:25;5.25;;;3.00;;
26908;SDS011;14477;51.038;4.588;2023-04-03T04:11:51;5.15;;;2.78;;
26908;SDS011;14477;51.038;4.588;2023-04-03T04:14:17;4.97;;;2.70;;
26908;SDS011;14477;51.038;4.588;2023-04-03T04:16:45;4.68;;;2.92;;
26908;SDS011;14477;51.038;4.588;2023-04-03T04:19:11;4.87;;;2.83;;
26908;SDS011;14477;51.038;4.588;2023-04-03T04:21:37;5.05;;;2.60;;
26908;SDS011;14477;51.038;4.588;2023-04-03T04:24:03;6.10;;;3.30;;
26908;SDS011;14477;51.038;4.588;2023-04-03T04:26:29;4.33;;;2.67;;
26908;SDS011;14477;51.038;4.588;2023-04-03T04:28:54;4.53;;;2.80;;
26908;SDS011;14477;51.038;4.588;2023-04-03T04:31:20;5.77;;;2.97;;
26908;SDS011;14477;51.038;4.588;2023-04-03T04:33:46;4.97;;;2.95;;
26908;SDS011;14477;51.038;4.588;2023-04-03T04:36:11;5.57;;;3.00;;
26908;SDS011;14477;51.038;4.588;2023-04-03T04:38:37;5.47;;;3.10;;
26908;SDS011;14477;51.038;4.588;2023-04-03T04:41:03;4.90;;;2.77;;
26908;SDS011;14477;51.038;4.588;2023-04-03T04:43:29;5.95;;;3.10;;
26908;SDS011;14477;51.038;4.588;2023-04-03T04:46:02;4.70;;;2.90;;
26908;SDS011;14477;51.038;4.588;2023-04-03T04:48:29;5.10;;;2.88;;
26908;SDS011;14477;51.038;4.588;2023-04-03T04:50:55;5.32;;;2.78;;
26908;SDS011;14477;51.038;4.588;2023-04-03T04:53:21;5.27;;;3.00;;
26908;SDS011;14477;51.038;4.588;2023-04-03T04:55:46;4.45;;;2.97;;
26908;SDS011;14477;51.038;4.588;2023-04-03T04:58:12;5.07;;;2.80;;
26908;SDS011;14477;51.038;4.588;2023-04-03T05:00:38;4.80;;;2.80;;
26908;SDS011;14477;51.038;4.588;2023-04-03T05:03:04;5.20;;;2.90;;
26908;SDS011;14477;51.038;4.588;2023-04-03T05:05:30;5.78;;;3.08;;
26908;SDS011;14477;51.038;4.588;2023-04-03T05:07:55;5.90;;;3.40;;
26908;SDS011;14477;51.038;4.588;2023-04-03T05:10:21;6.17;;;2.90;;
26908;SDS011;14477;51.038;4.588;2023-04-03T05:12:47;4.93;;;3.03;;
26908;SDS011;14477;51.038;4.588;2023-04-03T05:15:12;5.57;;;3.17;;
26908;SDS011;14477;51.038;4.588;2023-04-03T05:17:38;5.13;;;2.92;;
26908;SDS011;14477;51.038;4.588;2023-04-03T05:20:04;5.47;;;2.97;;
26908;SDS011;14477;51.038;4.588;2023-04-03T05:22:30;5.63;;;3.20;;
26908;SDS011;14477;51.038;4.588;2023-04-03T05:24:56;5.70;;;2.90;;
26908;SDS011;14477;51.038;4.588;2023-04-03T05:27:22;5.97;;;3.80;;
26908;SDS011;14477;51.038;4.588;2023-04-03T05:29:49;6.43;;;3.38;;
26908;SDS011;14477;51.038;4.588;2023-04-03T05:32:15;5.32;;;3.22;;
26908;SDS011;14477;51.038;4.588;2023-04-03T05:34:41;5.55;;;3.45;;
26908;SDS011;14477;51.038;4.588;2023-04-03T05:37:07;6.07;;;3.53;;
26908;SDS011;14477;51.038;4.588;2023-04-03T05:39:33;6.75;;;3.70;;
26908;SDS011;14477;51.038;4.588;2023-04-03T05:41:59;5.20;;;3.10;;
26908;SDS011;14477;51.038;4.588;2023-04-03T05:44:25;5.97;;;3.17;;
26908;SDS011;14477;51.038;4.588;2023-04-03T05:46:50;5.85;;;3.70;;
26908;SDS011;14477;51.038;4.588;2023-04-03T05:49:16;6.73;;;3.60;;
26908;SDS011;14477;51.038;4.588;2023-04-03T05:51:42;5.32;;;3.50;;
26908;SDS011;14477;51.038;4.588;2023-04-03T05:54:13;5.70;;;3.70;;
26908;SDS011;14477;51.038;4.588;2023-04-03T05:56:43;6.45;;;3.53;;
26908;SDS011;14477;51.038;4.588;2023-04-03T05:59:10;6.25;;;3.80;;
26908;SDS011;14477;51.038;4.588;2023-04-03T06:01:36;6.05;;;3.78;;
26908;SDS011;14477;51.038;4.588;2023-04-03T06:04:02;7.07;;;4.17;;
26908;SDS011;14477;51.038;4.588;2023-04-03T06:09:15;7.22;;;3.50;;
26908;SDS011;14477;51.038;4.588;2023-04-03T06:11:41;7.13;;;3.67;;
26908;SDS011;14477;51.038;4.588;2023-04-03T06:14:07;6.47;;;4.13;;
26908;SDS011;14477;51.038;4.588;2023-04-03T06:16:34;6.82;;;4.03;;
26908;SDS011;14477;51.038;4.588;2023-04-03T06:18:59;6.23;;;3.67;;
26908;SDS011;14477;51.038;4.588;2023-04-03T06:21:26;7.05;;;3.95;;
26908;SDS011;14477;51.038;4.588;2023-04-03T06:23:51;6.32;;;4.30;;
26908;SDS011;14477;51.038;4.588;2023-04-03T06:26:17;6.63;;;3.80;;
26908;SDS011;14477;51.038;4.588;2023-04-03T06:28:43;9.00;;;3.93;;
26908;SDS011;14477;51.038;4.588;2023-04-03T06:31:09;8.75;;;4.60;;
26908;SDS011;14477;51.038;4.588;2023-04-03T06:33:34;7.80;;;4.30;;
26908;SDS011;14477;51.038;4.588;2023-04-03T06:36:02;8.10;;;4.73;;
26908;SDS011;14477;51.038;4.588;2023-04-03T06:38:29;7.93;;;4.57;;
26908;SDS011;14477;51.038;4.588;2023-04-03T06:40:55;7.95;;;4.55;;
26908;SDS011;14477;51.038;4.588;2023-04-03T06:43:22;6.32;;;4.03;;
26908;SDS011;14477;51.038;4.588;2023-04-03T06:45:47;6.97;;;4.53;;
26908;SDS011;14477;51.038;4.588;2023-04-03T06:48:13;7.47;;;4.80;;
26908;SDS011;14477;51.038;4.588;2023-04-03T06:50:39;6.05;;;4.30;;
26908;SDS011;14477;51.038;4.588;2023-04-03T06:53:05;6.67;;;3.83;;
26908;SDS011;14477;51.038;4.588;2023-04-03T06:55:31;6.47;;;4.45;;
26908;SDS011;14477;51.038;4.588;2023-04-03T06:57:57;5.43;;;4.15;;
26908;SDS011;14477;51.038;4.588;2023-04-03T07:00:23;5.20;;;3.70;;
26908;SDS011;14477;51.038;4.588;2023-04-03T07:02:49;4.60;;;3.35;;
26908;SDS011;14477;51.038;4.588;2023-04-03T07:05:16;4.22;;;3.15;;
26908;SDS011;14477;51.038;4.588;2023-04-03T07:07:42;8.70;;;4.10;;
26908;SDS011;14477;51.038;4.588;2023-04-03T07:10:08;4.57;;;3.30;;
26908;SDS011;14477;51.038;4.588;2023-04-03T07:12:35;4.72;;;3.38;;
26908;SDS011;14477;51.038;4.588;2023-04-03T07:15:00;4.93;;;3.35;;
26908;SDS011;14477;51.038;4.588;2023-04-03T07:17:26;5.00;;;3.17;;
26908;SDS011;14477;51.038;4.588;2023-04-03T07:19:52;5.28;;;3.03;;
26908;SDS011;14477;51.038;4.588;2023-04-03T07:22:17;3.97;;;3.10;;
26908;SDS011;14477;51.038;4.588;2023-04-03T07:24:43;3.90;;;3.08;;
26908;SDS011;14477;51.038;4.588;2023-04-03T07:27:10;4.05;;;2.95;;
26908;SDS011;14477;51.038;4.588;2023-04-03T07:29:37;3.70;;;2.57;;
26908;SDS011;14477;51.038;4.588;2023-04-03T07:32:03;4.57;;;3.03;;
26908;SDS011;14477;51.038;4.588;2023-04-03T07:34:30;3.90;;;2.60;;
26908;SDS011;14477;51.038;4.588;2023-04-03T07:36:57;3.42;;;2.42;;
26908;SDS011;14477;51.038;4.588;2023-04-03T07:39:24;4.40;;;2.40;;
26908;SDS011;14477;51.038;4.588;2023-04-03T07:41:50;3.60;;;2.80;;
26908;SDS011;14477;51.038;4.588;2023-04-03T07:44:16;4.15;;;2.80;;
26908;SDS011;14477;51.038;4.588;2023-04-03T07:46:42;5.35;;;2.85;;
26908;SDS011;14477;51.038;4.588;2023-04-03T07:49:08;4.23;;;2.80;;
26908;SDS011;14477;51.038;4.588;2023-04-03T07:51:34;3.70;;;2.57;;
26908;SDS011;14477;51.038;4.588;2023-04-03T07:54:00;3.50;;;2.42;;
26908;SDS011;14477;51.038;4.588;2023-04-03T07:56:26;5.43;;;2.85;;
26908;SDS011;14477;51.038;4.588;2023-04-03T07:58:52;3.73;;;2.10;;
26908;SDS011;14477;51.038;4.588;2023-04-03T08:01:18;3.00;;;2.50;;
26908;SDS011;14477;51.038;4.588;2023-04-03T08:03:44;4.97;;;2.47;;
26908;SDS011;14477;51.038;4.588;2023-04-03T08:06:10;4.57;;;2.50;;
26908;SDS011;14477;51.038;4.588;2023-04-03T08:08:36;3.95;;;2.40;;
26908;SDS011;14477;51.038;4.588;2023-04-03T08:11:01;3.37;;;1.97;;
26908;SDS011;14477;51.038;4.588;2023-04-03T08:13:28;3.87;;;2.20;;
26908;SDS011;14477;51.038;4.588;2023-04-03T08:15:54;3.40;;;2.20;;
26908;SDS011;14477;51.038;4.588;2023-04-03T08:18:22;4.07;;;2.30;;
26908;SDS011;14477;51.038;4.588;2023-04-03T08:20:50;3.05;;;2.15;;
26908;SDS011;14477;51.038;4.588;2023-04-03T08:23:17;4.07;;;2.17;;
26908;SDS011;14477;51.038;4.588;2023-04-03T08:25:43;2.80;;;1.77;;
26908;SDS011;14477;51.038;4.588;2023-04-03T08:28:10;3.28;;;1.77;;
26908;SDS011;14477;51.038;4.588;2023-04-03T08:30:38;3.80;;;2.10;;
26908;SDS011;14477;51.038;4.588;2023-04-03T08:33:05;3.63;;;2.00;;
26908;SDS011;14477;51.038;4.588;2023-04-03T08:35:31;2.53;;;1.70;;
26908;SDS011;14477;51.038;4.588;2023-04-03T08:37:57;4.20;;;2.30;;
26908;SDS011;14477;51.038;4.588;2023-04-03T08:40:22;4.20;;;2.10;;
26908;SDS011;14477;51.038;4.588;2023-04-03T08:48:13;4.03;;;1.95;;
26908;SDS011;14477;51.038;4.588;2023-04-03T08:51:03;2.78;;;1.77;;
26908;SDS011;14477;51.038;4.588;2023-04-03T08:53:37;2.33;;;1.40;;
26908;SDS011;14477;51.038;4.588;2023-04-03T08:56:08;2.80;;;1.63;;
26908;SDS011;14477;51.038;4.588;2023-04-03T08:58:52;2.05;;;1.50;;
26908;SDS011;14477;51.038;4.588;2023-04-03T09:01:24;2.15;;;1.52;;
26908;SDS011;14477;51.038;4.588;2023-04-03T09:03:54;2.58;;;1.60;;
26908;SDS011;14477;51.038;4.588;2023-04-03T09:06:21;2.80;;;1.50;;
26908;SDS011;14477;51.038;4.588;2023-04-03T09:12:03;2.40;;;1.52;;
26908;SDS011;14477;51.038;4.588;2023-04-03T09:14:45;2.13;;;1.45;;
26908;SDS011;14477;51.038;4.588;2023-04-03T09:17:47;1.83;;;1.00;;
26908;SDS011;14477;51.038;4.588;2023-04-03T09:26:24;2.45;;;1.30;;
26908;SDS011;14477;51.038;4.588;2023-04-03T09:28:55;2.17;;;1.20;;
26908;SDS011;14477;51.038;4.588;2023-04-03T09:31:46;1.57;;;1.00;;
26908;SDS011;14477;51.038;4.588;2023-04-03T09:37:01;2.00;;;1.13;;
26908;SDS011;14477;51.038;4.588;2023-04-03T09:39:31;3.08;;;1.40;;
26908;SDS011;14477;51.038;4.588;2023-04-03T09:42:00;1.63;;;1.40;;
26908;SDS011;14477;51.038;4.588;2023-04-03T09:44:35;3.40;;;1.43;;
26908;SDS011;14477;51.038;4.588;2023-04-03T09:49:51;2.35;;;1.30;;
26908;SDS011;14477;51.038;4.588;2023-04-03T09:52:34;2.92;;;1.58;;
26908;SDS011;14477;51.038;4.588;2023-04-03T09:55:06;1.40;;;1.20;;
26908;SDS011;14477;51.038;4.588;2023-04-03T09:57:33;2.85;;;1.50;;
26908;SDS011;14477;51.038;4.588;2023-04-03T09:59:59;2.10;;;1.30;;
26908;SDS011;14477;51.038;4.588;2023-04-03T10:05:04;3.33;;;1.30;;
26908;SDS011;14477;51.038;4.588;2023-04-03T10:07:52;2.50;;;1.30;;
26908;SDS011;14477;51.038;4.588;2023-04-03T10:10:35;2.13;;;1.23;;
26908;SDS011;14477;51.038;4.588;2023-04-03T10:13:12;2.20;;;1.40;;
26908;SDS011;14477;51.038;4.588;2023-04-03T10:15:40;2.17;;;1.17;;
26908;SDS011;14477;51.038;4.588;2023-04-03T10:21:10;2.03;;;1.17;;
26908;SDS011;14477;51.038;4.588;2023-04-03T10:23:51;1.30;;;1.00;;
26908;SDS011;14477;51.038;4.588;2023-04-03T10:26:31;2.17;;;1.17;;
26908;SDS011;14477;51.038;4.588;2023-04-03T10:29:16;2.03;;;1.30;;
26908;SDS011;14477;51.038;4.588;2023-04-03T10:31:55;2.72;;;1.30;;
26908;SDS011;14477;51.038;4.588;2023-04-03T10:34:48;1.55;;;1.25;;
26908;SDS011;14477;51.038;4.588;2023-04-03T10:42:54;2.13;;;1.30;;
26908;SDS011;14477;51.038;4.588;2023-04-03T10:45:34;3.83;;;1.33;;
26908;SDS011;14477;51.038;4.588;2023-04-03T10:48:26;2.45;;;1.20;;
26908;SDS011;14477;51.038;4.588;2023-04-03T10:56:48;2.10;;;1.03;;
26908;SDS011;14477;51.038;4.588;2023-04-03T11:02:00;1.98;;;1.30;;
26908;SDS011;14477;51.038;4.588;2023-04-03T11:04:48;1.77;;;1.00;;
26908;SDS011;14477;51.038;4.588;2023-04-03T11:07:20;2.35;;;1.38;;
26908;SDS011;14477;51.038;4.588;2023-04-03T11:09:52;1.77;;;0.90;;
26908;SDS011;14477;51.038;4.588;2023-04-03T11:12:26;1.27;;;0.80;;
26908;SDS011;14477;51.038;4.588;2023-04-03T11:15:01;2.15;;;1.10;;
26908;SDS011;14477;51.038;4.588;2023-04-03T11:17:48;2.75;;;1.20;;
26908;SDS011;14477;51.038;4.588;2023-04-03T11:20:28;1.25;;;1.00;;
26908;SDS011;14477;51.038;4.588;2023-04-03T11:23:03;2.30;;;1.20;;
26908;SDS011;14477;51.038;4.588;2023-04-03T11:25:41;3.30;;;0.98;;
26908;SDS011;14477;51.038;4.588;2023-04-03T11:28:12;2.13;;;1.08;;
26908;SDS011;14477;51.038;4.588;2023-04-03T11:35:42;1.83;;;1.13;;
26908;SDS011;14477;51.038;4.588;2023-04-03T11:38:14;1.60;;;1.08;;
26908;SDS011;14477;51.038;4.588;2023-04-03T11:40:47;1.80;;;1.08;;
26908;SDS011;14477;51.038;4.588;2023-04-03T11:43:21;1.27;;;1.00;;
26908;SDS011;14477;51.038;4.588;2023-04-03T11:50:56;1.92;;;0.90;;
26908;SDS011;14477;51.038;4.588;2023-04-03T11:55:56;1.80;;;0.90;;
26908;SDS011;14477;51.038;4.588;2023-04-03T11:58:32;3.03;;;1.00;;
26908;SDS011;14477;51.038;4.588;2023-04-03T12:01:04;1.13;;;0.70;;
26908;SDS011;14477;51.038;4.588;2023-04-03T12:03:32;2.00;;;1.00;;
26908;SDS011;14477;51.038;4.588;2023-04-03T12:13:43;2.20;;;0.80;;
26908;SDS011;14477;51.038;4.588;2023-04-03T12:16:46;1.15;;;0.80;;
26908;SDS011;14477;51.038;4.588;2023-04-03T12:30:25;1.10;;;0.73;;
26908;SDS011;14477;51.038;4.588;2023-04-03T12:32:48;1.35;;;0.90;;
26908;SDS011;14477;51.038;4.588;2023-04-03T12:38:53;1.20;;;0.80;;
26908;SDS011;14477;51.038;4.588;2023-04-03T12:47:27;1.95;;;0.90;;
26908;SDS011;14477;51.038;4.588;2023-04-03T12:50:03;1.67;;;1.00;;
26908;SDS011;14477;51.038;4.588;2023-04-03T12:52:45;2.08;;;1.20;;
26908;SDS011;14477;51.038;4.588;2023-04-03T12:55:24;3.38;;;1.27;;
26908;SDS011;14477;51.038;4.588;2023-04-03T12:57:51;2.05;;;1.05;;
26908;SDS011;14477;51.038;4.588;2023-04-03T13:00:33;2.08;;;1.10;;
26908;SDS011;14477;51.038;4.588;2023-04-03T13:03:03;1.70;;;1.07;;
26908;SDS011;14477;51.038;4.588;2023-04-03T13:05:31;1.92;;;1.10;;
26908;SDS011;14477;51.038;4.588;2023-04-03T13:07:59;2.10;;;1.02;;
26908;SDS011;14477;51.038;4.588;2023-04-03T13:10:30;2.25;;;1.20;;
26908;SDS011;14477;51.038;4.588;2023-04-03T13:12:58;3.05;;;1.20;;
26908;SDS011;14477;51.038;4.588;2023-04-03T13:15:41;2.00;;;1.20;;
26908;SDS011;14477;51.038;4.588;2023-04-03T13:18:23;2.60;;;1.10;;
26908;SDS011;14477;51.038;4.588;2023-04-03T13:21:05;3.15;;;1.42;;
26908;SDS011;14477;51.038;4.588;2023-04-03T13:23:34;2.03;;;1.20;;
26908;SDS011;14477;51.038;4.588;2023-04-03T13:26:04;1.65;;;0.90;;
26908;SDS011;14477;51.038;4.588;2023-04-03T13:28:31;2.33;;;1.23;;
26908;SDS011;14477;51.038;4.588;2023-04-03T13:31:07;1.55;;;1.20;;
26908;SDS011;14477;51.038;4.588;2023-04-03T13:33:43;2.00;;;1.10;;
26908;SDS011;14477;51.038;4.588;2023-04-03T13:37:13;1.88;;;1.20;;
26908;SDS011;14477;51.038;4.588;2023-04-03T13:41:49;2.33;;;1.13;;
26908;SDS011;14477;51.038;4.588;2023-04-03T13:44:23;2.85;;;1.40;;
26908;SDS011;14477;51.038;4.588;2023-04-03T13:46:54;2.92;;;1.30;;
26908;SDS011;14477;51.038;4.588;2023-04-03T13:49:26;2.05;;;1.17;;
26908;SDS011;14477;51.038;4.588;2023-04-03T13:51:57;1.95;;;1.30;;
26908;SDS011;14477;51.038;4.588;2023-04-03T13:54:34;1.50;;;1.10;;
26908;SDS011;14477;51.038;4.588;2023-04-03T13:57:02;2.50;;;1.27;;
26908;SDS011;14477;51.038;4.588;2023-04-03T13:59:37;1.70;;;1.10;;
26908;SDS011;14477;51.038;4.588;2023-04-03T14:04:51;1.80;;;1.10;;
26908;SDS011;14477;51.038;4.588;2023-04-03T14:07:14;2.05;;;1.10;;
26908;SDS011;14477;51.038;4.588;2023-04-03T14:09:44;2.38;;;1.00;;
26908;SDS011;14477;51.038;4.588;2023-04-03T14:12:15;2.23;;;1.10;;
26908;SDS011;14477;51.038;4.588;2023-04-03T14:14:52;1.88;;;1.02;;
26908;SDS011;14477;51.038;4.588;2023-04-03T14:17:22;2.30;;;1.10;;
26908;SDS011;14477;51.038;4.588;2023-04-03T14:19:51;1.27;;;1.00;;
26908;SDS011;14477;51.038;4.588;2023-04-03T14:22:22;1.92;;;1.10;;
26908;SDS011;14477;51.038;4.588;2023-04-03T14:24:51;2.30;;;1.00;;
26908;SDS011;14477;51.038;4.588;2023-04-03T14:27:24;1.70;;;0.90;;
26908;SDS011;14477;51.038;4.588;2023-04-03T14:29:56;1.52;;;1.00;;
26908;SDS011;14477;51.038;4.588;2023-04-03T14:32:23;1.70;;;0.90;;
26908;SDS011;14477;51.038;4.588;2023-04-03T14:34:51;1.92;;;1.10;;
26908;SDS011;14477;51.038;4.588;2023-04-03T14:37:19;1.42;;;0.88;;
26908;SDS011;14477;51.038;4.588;2023-04-03T14:39:47;1.95;;;1.00;;
26908;SDS011;14477;51.038;4.588;2023-04-03T14:42:16;1.15;;;0.90;;
26908;SDS011;14477;51.038;4.588;2023-04-03T14:44:44;3.23;;;1.13;;
26908;SDS011;14477;51.038;4.588;2023-04-03T14:47:13;1.95;;;1.10;;
26908;SDS011;14477;51.038;4.588;2023-04-03T14:49:46;2.22;;;1.00;;
26908;SDS011;14477;51.038;4.588;2023-04-03T14:52:45;1.23;;;0.98;;
26908;SDS011;14477;51.038;4.588;2023-04-03T14:55:04;2.13;;;1.10;;
26908;SDS011;14477;51.038;4.588;2023-04-03T14:57:31;1.75;;;0.90;;
26908;SDS011;14477;51.038;4.588;2023-04-03T14:59:57;1.10;;;0.82;;
26908;SDS011;14477;51.038;4.588;2023-04-03T15:02:27;2.30;;;1.10;;
26908;SDS011;14477;51.038;4.588;2023-04-03T15:04:57;2.87;;;1.03;;
26908;SDS011;14477;51.038;4.588;2023-04-03T15:07:24;1.17;;;0.98;;
26908;SDS011;14477;51.038;4.588;2023-04-03T15:09:51;1.50;;;0.80;;
26908;SDS011;14477;51.038;4.588;2023-04-03T15:12:17;1.60;;;1.00;;
26908;SDS011;14477;51.038;4.588;2023-04-03T15:14:43;1.77;;;0.90;;
26908;SDS011;14477;51.038;4.588;2023-04-03T15:17:16;1.70;;;1.10;;
26908;SDS011;14477;51.038;4.588;2023-04-03T15:19:43;2.05;;;1.20;;
26908;SDS011;14477;51.038;4.588;2023-04-03T15:22:13;1.27;;;0.90;;
26908;SDS011;14477;51.038;4.588;2023-04-03T15:24:40;2.03;;;1.02;;
26908;SDS011;14477;51.038;4.588;2023-04-03T15:27:06;1.95;;;1.10;;
26908;SDS011;14477;51.038;4.588;2023-04-03T15:29:32;1.83;;;1.00;;
26908;SDS011;14477;51.038;4.588;2023-04-03T15:31:58;2.07;;;1.00;;
26908;SDS011;14477;51.038;4.588;2023-04-03T15:34:23;1.70;;;1.10;;
26908;SDS011;14477;51.038;4.588;2023-04-03T15:36:49;2.50;;;1.00;;
26908;SDS011;14477;51.038;4.588;2023-04-03T15:39:17;2.28;;;1.05;;
26908;SDS011;14477;51.038;4.588;2023-04-03T15:41:43;3.08;;;1.45;;
26908;SDS011;14477;51.038;4.588;2023-04-03T15:44:10;2.77;;;1.20;;
26908;SDS011;14477;51.038;4.588;2023-04-03T15:46:37;2.20;;;1.20;;
26908;SDS011;14477;51.038;4.588;2023-04-03T15:49:03;3.05;;;1.20;;
26908;SDS011;14477;51.038;4.588;2023-04-03T15:51:30;2.35;;;1.20;;
26908;SDS011;14477;51.038;4.588;2023-04-03T15:53:56;2.88;;;1.27;;
26908;SDS011;14477;51.038;4.588;2023-04-03T15:56:22;2.17;;;1.20;;
26908;SDS011;14477;51.038;4.588;2023-04-03T15:58:48;2.25;;;1.35;;
26908;SDS011;14477;51.038;4.588;2023-04-03T16:01:13;4.00;;;1.30;;
26908;SDS011;14477;51.038;4.588;2023-04-03T16:03:40;1.85;;;1.25;;
26908;SDS011;14477;51.038;4.588;2023-04-03T16:06:10;1.40;;;1.15;;
26908;SDS011;14477;51.038;4.588;2023-04-03T16:08:37;1.40;;;1.00;;
26908;SDS011;14477;51.038;4.588;2023-04-03T16:11:03;2.17;;;1.20;;
26908;SDS011;14477;51.038;4.588;2023-04-03T16:13:29;2.60;;;1.20;;
26908;SDS011;14477;51.038;4.588;2023-04-03T16:15:55;4.15;;;1.52;;
26908;SDS011;14477;51.038;4.588;2023-04-03T16:18:21;2.50;;;1.33;;
26908;SDS011;14477;51.038;4.588;2023-04-03T16:20:47;2.60;;;1.23;;
26908;SDS011;14477;51.038;4.588;2023-04-03T16:23:13;3.20;;;1.25;;
26908;SDS011;14477;51.038;4.588;2023-04-03T16:25:39;3.10;;;1.25;;
26908;SDS011;14477;51.038;4.588;2023-04-03T16:28:05;2.70;;;1.30;;
26908;SDS011;14477;51.038;4.588;2023-04-03T16:30:31;3.03;;;1.60;;
26908;SDS011;14477;51.038;4.588;2023-04-03T16:32:58;3.25;;;1.52;;
26908;SDS011;14477;51.038;4.588;2023-04-03T16:35:23;2.20;;;1.33;;
26908;SDS011;14477;51.038;4.588;2023-04-03T16:37:49;2.83;;;1.70;;
26908;SDS011;14477;51.038;4.588;2023-04-03T16:40:15;3.57;;;1.50;;
26908;SDS011;14477;51.038;4.588;2023-04-03T16:42:41;2.63;;;1.40;;